Time;durP1;ratioP1;P1;durP2;ratioP2;P2;SDS_P1;SDS_P2;PMS_P1;PMS_P2;Temp;Humidity;BMP_temperature;BMP_pressure;BME280_temperature;BME280_humidity;BME280_pressure;Samples;Min_cycle;Max_cycle;Signal;HPM_P1;HPM_P2
2021/01/28 00:00:39;;;;;;;;;;;0.80;94.80;;;;;;5074676;28;20031;-69
2021/01/28 00:03:08;;;;;;;;;;;0.80;94.90;;;;;;5074722;28;19939;-69
2021/01/28 00:05:36;;;;;;;;;;;0.90;94.90;;;;;;5073400;28;19938;-69
2021/01/28 00:08:03;;;;;;;;;;;0.90;94.70;;;;;;5073459;28;19924;-68
2021/01/28 00:10:29;;;;;;;;;;;0.90;94.70;;;;;;5070992;28;19939;-69
2021/01/28 00:12:57;;;;;;;;;;;0.90;94.50;;;;;;5074630;28;19924;-69
2021/01/28 00:15:25;;;;;;;;;;;1.00;94.60;;;;;;5070024;28;20319;-69
2021/01/28 00:17:52;;;;;;;;;;;1.10;94.40;;;;;;5074150;28;20277;-69
2021/01/28 00:20:23;;;;;;;;;;;1.10;94.10;;;;;;5070773;28;20387;-69
2021/01/28 00:22:49;;;;;;;;;;;1.10;94.20;;;;;;5072944;28;19972;-69
2021/01/28 00:25:17;;;;;;;;;;;1.20;94.30;;;;;;5077895;28;19928;-69
2021/01/28 00:27:44;;;;;;;;;;;1.30;93.90;;;;;;5094764;28;19928;-69
2021/01/28 00:30:13;;;;;;;;;;;1.30;93.80;;;;;;5084918;28;19959;-69
2021/01/28 00:32:40;;;;;;;;;;;1.20;94.10;;;;;;5072961;28;20344;-69
2021/01/28 00:35:07;;;;;;;;;;;1.30;94.00;;;;;;5070590;28;19924;-69
2021/01/28 00:37:33;;;;;;;;;;;1.30;93.90;;;;;;5072963;28;20268;-70
2021/01/28 00:40:00;;;;;;;;;;;1.30;93.90;;;;;;5073847;28;19936;-69
2021/01/28 00:42:26;;;;;;;;;;;1.30;93.90;;;;;;5070510;28;19929;-69
2021/01/28 00:44:52;;;;;;;;;;;1.30;93.80;;;;;;5073679;28;20314;-69
2021/01/28 00:47:18;;;;;;;;;;;1.30;93.80;;;;;;5070408;28;20253;-69
2021/01/28 00:49:45;;;;;;;;;;;1.40;93.70;;;;;;5071788;28;19928;-69
2021/01/28 00:52:11;;;;;;;;;;;1.40;93.80;;;;;;5070046;28;19928;-69
2021/01/28 00:54:40;;;;;;;;;;;1.50;93.60;;;;;;5073235;28;19997;-69
2021/01/28 00:57:06;;;;;;;;;;;1.60;93.40;;;;;;5070050;28;19928;-69
2021/01/28 00:59:33;;;;;;;;;;;1.60;93.50;;;;;;5073462;28;19951;-69
2021/01/28 01:01:59;;;;;;;;;;;1.60;93.60;;;;;;5069792;28;20341;-69
2021/01/28 01:04:29;;;;;;;;;;;1.70;93.70;;;;;;5073977;28;19994;-69
2021/01/28 01:06:57;;;;;;;;;;;1.80;93.90;;;;;;5069437;28;19925;-69
2021/01/28 01:09:24;;;;;;;;;;;1.80;93.80;;;;;;5073059;28;19928;-69
2021/01/28 01:11:51;;;;;;;;;;;1.90;93.80;;;;;;5072958;28;20393;-69
2021/01/28 01:14:18;;;;;;;;;;;1.90;94.00;;;;;;5069618;28;19928;-69
2021/01/28 01:16:44;;;;;;;;;;;1.90;93.90;;;;;;5072876;28;19924;-69
2021/01/28 01:19:11;;;;;;;;;;;1.90;94.00;;;;;;5068832;28;20053;-69
2021/01/28 01:21:38;;;;;;;;;;;2.00;93.90;;;;;;5071756;28;20345;-69
2021/01/28 01:24:05;;;;;;;;;;;2.00;93.90;;;;;;5068790;28;20325;-69
2021/01/28 01:26:32;;;;;;;;;;;2.00;94.10;;;;;;5072775;28;19928;-69
2021/01/28 01:29:00;;;;;;;;;;;2.00;94.20;;;;;;5068685;28;19967;-69
2021/01/28 01:31:30;;;;;;;;;;;1.90;94.30;;;;;;5072442;28;19924;-69
2021/01/28 01:33:56;;;;;;;;;;;2.00;94.40;;;;;;5068302;28;19964;-69
2021/01/28 01:36:23;;;;;;;;;;;2.00;94.40;;;;;;5071688;28;19928;-69
2021/01/28 01:38:49;;;;;;;;;;;1.90;94.30;;;;;;5069296;28;19925;-69
2021/01/28 01:41:15;;;;;;;;;;;1.90;94.40;;;;;;5072772;28;19935;-69
2021/01/28 01:43:42;;;;;;;;;;;1.90;94.50;;;;;;5072501;28;19940;-69
2021/01/28 01:46:10;;;;;;;;;;;1.90;94.70;;;;;;5068319;28;20353;-69
2021/01/28 01:48:42;;;;;;;;;;;1.90;94.60;;;;;;5072775;28;19929;-69
2021/01/28 01:51:17;;;;;;;;;;;1.90;94.50;;;;;;5068167;28;19989;-69
2021/01/28 01:53:46;;;;;;;;;;;1.80;94.80;;;;;;5071197;28;19924;-69
2021/01/28 01:56:16;;;;;;;;;;;1.90;94.70;;;;;;5068744;28;19936;-69
2021/01/28 01:58:45;;;;;;;;;;;1.90;94.70;;;;;;5072210;28;20388;-69
2021/01/28 02:01:12;;;;;;;;;;;1.90;94.80;;;;;;5068842;28;19928;-69
2021/01/28 02:03:40;;;;;;;;;;;2.00;94.80;;;;;;5071013;28;20094;-69
2021/01/28 02:06:27;;;;;;;;;;;1.90;94.90;;;;;;5068638;28;19928;-69
2021/01/28 02:08:53;;;;;;;;;;;1.90;94.70;;;;;;5071756;28;19928;-69
2021/01/28 02:11:20;;;;;;;;;;;2.00;94.80;;;;;;5068749;28;19925;-69
2021/01/28 02:13:49;;;;;;;;;;;2.00;94.90;;;;;;5071524;28;19978;-68
2021/01/28 02:16:19;;;;;;;;;;;1.90;94.90;;;;;;5068681;28;20253;-69
2021/01/28 02:18:46;;;;;;;;;;;1.90;95.10;;;;;;5071412;28;19928;-69
2021/01/28 02:21:21;;;;;;;;;;;1.90;95.30;;;;;;5068779;28;19936;-69
2021/01/28 02:23:56;;;;;;;;;;;1.90;95.40;;;;;;5071570;28;19924;-69
2021/01/28 02:26:23;;;;;;;;;;;1.90;95.30;;;;;;5068301;28;19928;-69
2021/01/28 02:28:50;;;;;;;;;;;1.90;95.40;;;;;;5071370;28;19928;-69
2021/01/28 02:31:17;;;;;;;;;;;1.90;95.20;;;;;;5071921;28;19982;-69
2021/01/28 02:33:54;;;;;;;;;;;2.00;95.30;;;;;;5067677;28;19924;-69
2021/01/28 02:36:27;;;;;;;;;;;2.00;95.30;;;;;;5070740;28;20379;-69
2021/01/28 02:38:53;;;;;;;;;;;1.90;95.40;;;;;;5068394;28;19968;-69
2021/01/28 02:41:20;;;;;;;;;;;2.00;95.40;;;;;;5071049;28;19924;-69
2021/01/28 02:43:47;;;;;;;;;;;2.00;95.30;;;;;;5068456;28;19929;-69
2021/01/28 02:46:15;;;;;;;;;;;2.10;95.20;;;;;;5071050;28;20005;-69
2021/01/28 02:48:42;;;;;;;;;;;2.10;95.40;;;;;;5067478;28;20300;-69
2021/01/28 02:51:09;;;;;;;;;;;2.10;95.40;;;;;;5071817;28;20001;-69
2021/01/28 02:53:40;;;;;;;;;;;2.00;95.30;;;;;;5068028;28;19928;-69
2021/01/28 02:56:07;;;;;;;;;;;2.00;95.30;;;;;;5071552;28;20002;-69
2021/01/28 02:58:36;;;;;;;;;;;2.10;95.40;;;;;;5068494;28;19963;-69
2021/01/28 03:01:03;;;;;;;;;;;2.10;95.40;;;;;;5071814;28;20311;-69
2021/01/28 03:03:30;;;;;;;;;;;2.10;95.40;;;;;;5068476;28;20017;-69
2021/01/28 03:05:56;;;;;;;;;;;2.20;95.30;;;;;;5070792;28;20315;-69
2021/01/28 03:08:24;;;;;;;;;;;2.20;95.10;;;;;;5062579;28;20138;-69
2021/01/28 03:10:53;;;;;;;;;;;2.10;95.10;;;;;;5066624;28;19929;-69
2021/01/28 03:13:22;;;;;;;;;;;2.20;95.30;;;;;;5072594;28;19941;-69
2021/01/28 03:15:49;;;;;;;;;;;2.20;95.40;;;;;;5071997;28;19985;-69
2021/01/28 03:18:18;;;;;;;;;;;2.20;95.30;;;;;;5075506;28;19982;-69
2021/01/28 03:20:44;;;;;;;;;;;2.30;95.20;;;;;;5084049;28;19943;-69
2021/01/28 03:23:10;;;;;;;;;;;2.30;95.20;;;;;;5085701;28;19982;-69
2021/01/28 03:25:39;;;;;;;;;;;2.30;95.10;;;;;;5071912;28;19966;-70
2021/01/28 03:28:06;;;;;;;;;;;2.20;95.50;;;;;;5075245;28;20021;-69
2021/01/28 03:30:35;;;;;;;;;;;2.20;95.60;;;;;;5070876;28;19936;-70
2021/01/28 03:33:02;;;;;;;;;;;2.20;95.70;;;;;;5075121;28;19937;-69
2021/01/28 03:35:29;;;;;;;;;;;2.10;95.80;;;;;;5070576;28;19931;-69
2021/01/28 03:37:56;;;;;;;;;;;2.10;95.80;;;;;;5075216;28;19925;-69
2021/01/28 03:40:24;;;;;;;;;;;2.20;95.90;;;;;;5074960;28;20033;-69
2021/01/28 03:42:50;;;;;;;;;;;2.10;95.70;;;;;;5073464;28;20414;-69
2021/01/28 03:45:17;;;;;;;;;;;2.20;95.70;;;;;;5074038;28;19924;-69
2021/01/28 03:47:44;;;;;;;;;;;2.20;95.80;;;;;;5071284;28;19978;-70
2021/01/28 03:50:11;;;;;;;;;;;2.30;95.60;;;;;;5074602;28;19977;-69
2021/01/28 03:52:38;;;;;;;;;;;2.20;95.60;;;;;;5070962;28;20264;-70
2021/01/28 03:55:05;;;;;;;;;;;2.20;95.70;;;;;;5074427;28;20573;-70
2021/01/28 03:57:34;;;;;;;;;;;2.20;95.70;;;;;;5070308;28;19928;-70
2021/01/28 04:00:02;;;;;;;;;;;2.20;95.80;;;;;;5073904;28;19974;-70
2021/01/28 04:02:29;;;;;;;;;;;2.30;95.70;;;;;;5071668;28;19997;-70
2021/01/28 04:04:55;;;;;;;;;;;2.20;95.80;;;;;;5075013;28;20296;-69
2021/01/28 04:07:21;;;;;;;;;;;2.20;95.80;;;;;;5069924;28;19986;-70
2021/01/28 04:09:48;;;;;;;;;;;2.30;95.70;;;;;;5073537;28;19928;-69
2021/01/28 04:12:14;;;;;;;;;;;2.30;95.70;;;;;;5072684;28;19990;-69
2021/01/28 04:14:40;;;;;;;;;;;2.30;95.70;;;;;;5072846;28;20006;-69
2021/01/28 04:17:11;;;;;;;;;;;2.30;95.80;;;;;;5074090;28;20337;-69
2021/01/28 04:19:37;;;;;;;;;;;2.30;95.80;;;;;;5069680;28;20311;-70
2021/01/28 04:22:04;;;;;;;;;;;2.30;95.70;;;;;;5073061;28;19925;-70
2021/01/28 04:24:31;;;;;;;;;;;2.30;95.60;;;;;;5070066;28;19940;-69
2021/01/28 04:26:57;;;;;;;;;;;2.40;95.70;;;;;;5073148;28;19929;-69
2021/01/28 04:29:24;;;;;;;;;;;2.40;95.80;;;;;;5070561;28;19928;-69
2021/01/28 04:31:50;;;;;;;;;;;2.40;95.80;;;;;;5073106;28;19924;-70
2021/01/28 04:34:19;;;;;;;;;;;2.40;95.80;;;;;;5069936;28;19925;-70
2021/01/28 04:36:45;;;;;;;;;;;2.40;95.70;;;;;;5073855;28;20084;-70
2021/01/28 04:39:11;;;;;;;;;;;2.50;95.70;;;;;;5069765;28;19993;-70
2021/01/28 04:41:37;;;;;;;;;;;2.50;95.40;;;;;;5073600;28;20309;-70
2021/01/28 04:44:05;;;;;;;;;;;2.50;95.40;;;;;;5070220;28;19993;-70
2021/01/28 04:46:36;;;;;;;;;;;2.50;95.60;;;;;;5071707;28;19932;-70
2021/01/28 04:49:09;;;;;;;;;;;2.50;95.80;;;;;;5073857;28;19980;-70
2021/01/28 04:51:36;;;;;;;;;;;2.50;95.80;;;;;;5069275;28;20419;-70
2021/01/28 04:54:31;;;;;;;;;;;2.50;95.70;;;;;;5072495;28;19959;-70
2021/01/28 04:57:01;;;;;;;;;;;2.50;95.80;;;;;;5068026;28;19941;-70
2021/01/28 04:59:39;;;;;;;;;;;2.40;95.90;;;;;;5073566;28;19925;-70
2021/01/28 05:02:06;;;;;;;;;;;2.50;95.90;;;;;;5070067;28;19928;-70
2021/01/28 05:04:41;;;;;;;;;;;2.50;95.80;;;;;;5073791;28;19935;-70
2021/01/28 05:07:09;;;;;;;;;;;2.50;95.90;;;;;;5069633;28;19928;-69
2021/01/28 05:09:36;;;;;;;;;;;2.60;96.00;;;;;;5072477;28;19963;-70
2021/01/28 05:12:02;;;;;;;;;;;2.70;95.60;;;;;;5070145;28;19960;-69
2021/01/28 05:14:33;;;;;;;;;;;2.60;95.50;;;;;;5072870;28;19974;-70
2021/01/28 05:17:00;;;;;;;;;;;2.60;95.60;;;;;;5069673;28;19928;-70
2021/01/28 05:19:35;;;;;;;;;;;2.60;95.70;;;;;;5072655;28;19990;-70
2021/01/28 05:22:07;;;;;;;;;;;2.50;95.70;;;;;;5068884;28;20280;-70
2021/01/28 05:24:57;;;;;;;;;;;2.50;95.90;;;;;;5073041;28;19979;-70
2021/01/28 05:27:32;;;;;;;;;;;2.50;96.00;;;;;;5063366;28;19960;-70
2021/01/28 05:30:00;;;;;;;;;;;2.50;96.10;;;;;;5072865;28;19963;-70
2021/01/28 05:32:47;;;;;;;;;;;2.40;96.20;;;;;;5068331;28;19933;-70
2021/01/28 05:35:25;;;;;;;;;;;2.40;96.20;;;;;;5072665;28;20261;-70
2021/01/28 05:38:07;;;;;;;;;;;2.40;96.20;;;;;;5069128;28;19924;-70
2021/01/28 05:40:33;;;;;;;;;;;2.40;96.20;;;;;;5072660;28;19924;-70
2021/01/28 05:43:00;;;;;;;;;;;2.40;96.10;;;;;;5069715;28;19929;-70
2021/01/28 05:45:27;;;;;;;;;;;2.50;96.10;;;;;;5071416;28;19924;-69
2021/01/28 05:47:53;;;;;;;;;;;2.40;95.80;;;;;;5068849;28;19981;-70
2021/01/28 05:50:29;;;;;;;;;;;2.40;95.80;;;;;;5072240;28;19924;-70
2021/01/28 05:53:09;;;;;;;;;;;2.40;95.90;;;;;;5070696;28;20020;-70
2021/01/28 05:55:38;;;;;;;;;;;2.40;96.00;;;;;;5071955;28;19924;-70
2021/01/28 05:58:05;;;;;;;;;;;2.40;96.10;;;;;;5072424;28;20009;-70
2021/01/28 06:00:50;;;;;;;;;;;2.40;96.10;;;;;;5068674;28;19935;-70
2021/01/28 06:03:26;;;;;;;;;;;2.40;96.10;;;;;;5072019;28;19924;-70
2021/01/28 06:06:04;;;;;;;;;;;2.40;96.20;;;;;;5069114;28;19976;-69
2021/01/28 06:08:39;;;;;;;;;;;2.40;96.30;;;;;;5071366;28;19924;-70
2021/01/28 06:11:09;;;;;;;;;;;2.30;96.30;;;;;;5067633;28;20670;-70
2021/01/28 06:13:53;;;;;;;;;;;2.30;96.40;;;;;;5071980;28;20346;-70
2021/01/28 06:16:38;;;;;;;;;;;2.30;96.30;;;;;;5067927;28;19924;-70
2021/01/28 06:19:20;;;;;;;;;;;2.30;96.30;;;;;;5071805;28;19928;-70
2021/01/28 06:21:50;;;;;;;;;;;2.30;96.20;;;;;;5068242;28;19993;-69
2021/01/28 06:24:36;;;;;;;;;;;2.30;96.30;;;;;;5070944;28;19971;-69
2021/01/28 06:27:25;;;;;;;;;;;2.30;96.40;;;;;;5037118;28;19964;-69
2021/01/28 06:29:57;;;;;;;;;;;2.30;96.50;;;;;;5051904;28;19933;-69
2021/01/28 06:32:42;;;;;;;;;;;2.30;96.60;;;;;;5068217;28;20635;-69
2021/01/28 06:35:28;;;;;;;;;;;2.30;96.40;;;;;;5071761;28;20011;-69
2021/01/28 06:37:58;;;;;;;;;;;2.30;96.40;;;;;;5051958;28;20330;-69
2021/01/28 06:40:33;;;;;;;;;;;2.40;96.50;;;;;;5064021;28;19997;-69
2021/01/28 06:43:04;;;;;;;;;;;2.40;96.60;;;;;;5067823;28;19924;-69
2021/01/28 06:45:33;;;;;;;;;;;2.50;96.60;;;;;;5071554;28;19925;-69
2021/01/28 06:48:05;;;;;;;;;;;2.60;96.20;;;;;;5069085;28;19954;-69
2021/01/28 06:50:39;;;;;;;;;;;2.60;95.90;;;;;;5075639;28;19940;-69
2021/01/28 06:53:08;;;;;;;;;;;2.80;95.60;;;;;;5072522;28;19924;-69
2021/01/28 06:55:34;;;;;;;;;;;2.80;95.40;;;;;;5074586;28;19993;-69
2021/01/28 06:58:03;;;;;;;;;;;2.70;95.40;;;;;;5072550;28;19925;-69
2021/01/28 07:01:02;;;;;;;;;;;2.60;95.60;;;;;;5075299;28;20320;-69
2021/01/28 07:03:34;;;;;;;;;;;2.50;95.80;;;;;;5049070;28;19928;-69
2021/01/28 07:06:01;;;;;;;;;;;2.50;95.90;;;;;;5074922;28;20195;-69
2021/01/28 07:08:30;;;;;;;;;;;2.50;96.00;;;;;;5072427;28;19978;-69
2021/01/28 07:11:00;;;;;;;;;;;2.50;96.00;;;;;;5075039;28;19924;-69
2021/01/28 07:13:33;;;;;;;;;;;2.50;96.20;;;;;;5071517;28;20337;-69
2021/01/28 07:16:04;;;;;;;;;;;2.60;96.10;;;;;;5076021;28;19979;-69
2021/01/28 07:18:39;;;;;;;;;;;2.70;95.90;;;;;;5070535;28;19929;-69
2021/01/28 07:21:06;;;;;;;;;;;2.80;95.50;;;;;;5075259;28;19994;-69
2021/01/28 07:23:34;;;;;;;;;;;2.80;95.10;;;;;;5068650;28;19990;-69
2021/01/28 07:26:10;;;;;;;;;;;2.70;95.30;;;;;;5061718;28;20308;-69
2021/01/28 07:28:37;;;;;;;;;;;2.70;95.30;;;;;;5067720;28;19928;-69
2021/01/28 07:31:03;;;;;;;;;;;2.70;95.20;;;;;;5073490;28;20608;-69
2021/01/28 07:33:29;;;;;;;;;;;2.70;95.40;;;;;;5087976;28;20030;-69
2021/01/28 07:35:56;;;;;;;;;;;2.70;95.20;;;;;;5071487;28;19932;-69
2021/01/28 07:38:34;;;;;;;;;;;2.70;95.40;;;;;;5074116;28;20410;-69
2021/01/28 07:41:03;;;;;;;;;;;2.70;95.00;;;;;;5073982;28;19978;-69
2021/01/28 07:43:33;;;;;;;;;;;2.70;95.10;;;;;;5075167;28;19928;-69
2021/01/28 07:46:13;;;;;;;;;;;2.80;95.20;;;;;;5071647;28;19971;-69
2021/01/28 07:48:40;;;;;;;;;;;2.80;94.70;;;;;;5075070;28;19924;-69
2021/01/28 07:51:27;;;;;;;;;;;2.80;94.90;;;;;;5059764;28;19956;-69
2021/01/28 07:53:54;;;;;;;;;;;2.90;94.90;;;;;;5054654;28;19925;-69
2021/01/28 07:56:38;;;;;;;;;;;2.80;94.70;;;;;;5063967;28;20030;-69
2021/01/28 07:59:11;;;;;;;;;;;2.80;94.70;;;;;;5087351;28;19955;-69
2021/01/28 08:01:39;;;;;;;;;;;3.00;94.90;;;;;;5062894;28;20261;-69
2021/01/28 08:04:24;;;;;;;;;;;3.00;94.20;;;;;;5073779;28;19929;-69
2021/01/28 08:06:51;;;;;;;;;;;3.00;94.10;;;;;;5070539;28;19928;-69
2021/01/28 08:09:18;;;;;;;;;;;2.90;94.40;;;;;;5074373;28;19928;-69
2021/01/28 08:11:54;;;;;;;;;;;2.90;94.40;;;;;;5070064;28;19925;-69
2021/01/28 08:14:25;;;;;;;;;;;3.00;94.40;;;;;;5072502;28;20027;-69
2021/01/28 08:16:54;;;;;;;;;;;3.00;94.40;;;;;;5070989;28;20380;-69
2021/01/28 08:19:22;;;;;;;;;;;3.20;94.30;;;;;;5073376;28;19928;-69
2021/01/28 08:22:01;;;;;;;;;;;3.20;94.10;;;;;;5069802;28;19959;-69
2021/01/28 08:24:36;;;;;;;;;;;3.20;94.30;;;;;;5068567;28;20319;-69
2021/01/28 08:27:30;;;;;;;;;;;3.30;94.10;;;;;;5070664;28;19932;-69
2021/01/28 08:30:07;;;;;;;;;;;3.40;93.80;;;;;;5071397;28;19932;-69
2021/01/28 08:32:34;;;;;;;;;;;3.50;93.80;;;;;;5080208;28;19924;-69
2021/01/28 08:35:06;;;;;;;;;;;3.60;93.80;;;;;;5072877;28;19947;-69
2021/01/28 08:37:34;;;;;;;;;;;3.80;93.20;;;;;;5069853;28;19933;-69
2021/01/28 08:40:00;;;;;;;;;;;3.80;93.20;;;;;;5066105;28;19978;-69
2021/01/28 08:42:27;;;;;;;;;;;3.70;93.30;;;;;;5053391;28;20349;-69
2021/01/28 08:45:08;;;;;;;;;;;3.80;93.30;;;;;;5069885;28;19932;-69
2021/01/28 08:47:34;;;;;;;;;;;3.80;92.80;;;;;;5073635;28;19974;-69
2021/01/28 08:50:00;;;;;;;;;;;3.80;93.00;;;;;;5070368;28;19975;-69
2021/01/28 08:52:27;;;;;;;;;;;3.80;93.30;;;;;;5073319;28;19928;-68
2021/01/28 08:54:53;;;;;;;;;;;3.90;92.80;;;;;;5069023;28;20011;-70
2021/01/28 08:57:21;;;;;;;;;;;4.00;92.70;;;;;;5072537;28;19970;-70
2021/01/28 08:59:48;;;;;;;;;;;4.00;93.00;;;;;;5070007;28;19956;-70
2021/01/28 09:02:18;;;;;;;;;;;4.10;92.70;;;;;;5071829;28;19986;-70
2021/01/28 09:04:47;;;;;;;;;;;4.20;92.40;;;;;;5068503;28;19928;-69
2021/01/28 09:07:32;;;;;;;;;;;4.30;92.20;;;;;;5071816;28;19982;-69
2021/01/28 09:10:05;;;;;;;;;;;4.20;92.40;;;;;;5069939;28;20319;-70
2021/01/28 09:12:37;;;;;;;;;;;4.20;92.60;;;;;;5072369;28;20005;-70
2021/01/28 09:15:09;;;;;;;;;;;4.20;92.70;;;;;;5070041;28;19931;-70
2021/01/28 09:17:39;;;;;;;;;;;4.20;92.70;;;;;;5073368;28;19998;-70
2021/01/28 09:20:05;;;;;;;;;;;4.20;92.40;;;;;;5067999;28;19943;-70
2021/01/28 09:22:34;;;;;;;;;;;4.30;92.30;;;;;;5072741;28;19936;-70
2021/01/28 09:25:02;;;;;;;;;;;4.30;92.20;;;;;;5069957;28;19997;-70
2021/01/28 09:27:30;;;;;;;;;;;4.30;92.50;;;;;;5072547;28;19958;-70
2021/01/28 09:30:10;;;;;;;;;;;4.30;92.50;;;;;;5072759;28;19994;-70
2021/01/28 09:32:37;;;;;;;;;;;4.30;92.70;;;;;;5062234;28;19929;-70
2021/01/28 09:35:04;;;;;;;;;;;4.50;92.40;;;;;;5051507;28;20275;-70
2021/01/28 09:37:30;;;;;;;;;;;4.50;92.40;;;;;;5066083;28;19987;-70
2021/01/28 09:39:56;;;;;;;;;;;4.60;92.50;;;;;;5072428;28;19924;-70
2021/01/28 09:42:30;;;;;;;;;;;4.60;92.60;;;;;;5069690;28;19932;-70
2021/01/28 09:45:06;;;;;;;;;;;4.60;92.50;;;;;;5072539;28;20016;-70
2021/01/28 09:47:32;;;;;;;;;;;4.60;92.70;;;;;;5068467;28;19932;-70
2021/01/28 09:50:00;;;;;;;;;;;4.60;91.60;;;;;;5072530;28;19924;-69
2021/01/28 09:52:26;;;;;;;;;;;4.50;91.60;;;;;;5068898;28;19924;-70
2021/01/28 09:54:57;;;;;;;;;;;4.60;91.80;;;;;;5071910;28;19928;-70
2021/01/28 09:57:27;;;;;;;;;;;4.50;91.90;;;;;;5068922;28;19924;-70
2021/01/28 09:59:57;;;;;;;;;;;4.60;92.00;;;;;;5071156;28;19955;-70
2021/01/28 10:02:38;;;;;;;;;;;4.70;91.60;;;;;;5053778;28;19928;-70
2021/01/28 10:05:05;;;;;;;;;;;4.80;91.80;;;;;;5092227;28;19928;-68
2021/01/28 10:07:34;;;;;;;;;;;4.80;90.80;;;;;;5086529;28;19924;-68
2021/01/28 10:10:02;;;;;;;;;;;4.70;91.20;;;;;;5072187;28;19926;-68
2021/01/28 10:12:28;;;;;;;;;;;4.70;91.40;;;;;;5072119;28;19928;-68
2021/01/28 10:14:55;;;;;;;;;;;4.50;91.60;;;;;;5067538;28;20031;-69
2021/01/28 10:17:24;;;;;;;;;;;4.50;91.60;;;;;;5071146;28;19924;-69
2021/01/28 10:19:50;;;;;;;;;;;4.50;91.90;;;;;;5068349;28;19928;-69
2021/01/28 10:22:22;;;;;;;;;;;4.50;91.80;;;;;;5071378;28;19982;-69
2021/01/28 10:24:49;;;;;;;;;;;4.60;91.70;;;;;;5068034;28;20046;-69
2021/01/28 10:27:16;;;;;;;;;;;4.60;91.60;;;;;;5070628;28;19958;-69
2021/01/28 10:29:45;;;;;;;;;;;4.70;91.10;;;;;;5068723;28;19929;-69
2021/01/28 10:32:13;;;;;;;;;;;4.70;90.80;;;;;;5085231;28;19958;-69
2021/01/28 10:34:40;;;;;;;;;;;4.80;90.90;;;;;;5079686;28;19932;-69
2021/01/28 10:37:06;;;;;;;;;;;4.80;90.60;;;;;;5071862;28;19959;-69
2021/01/28 10:39:33;;;;;;;;;;;4.70;90.70;;;;;;5068074;28;19982;-69
2021/01/28 10:41:59;;;;;;;;;;;4.60;90.60;;;;;;5070599;28;19924;-69
2021/01/28 10:44:26;;;;;;;;;;;4.60;90.70;;;;;;5067943;28;20300;-69
2021/01/28 10:46:52;;;;;;;;;;;4.60;91.00;;;;;;5070822;28;19928;-69
2021/01/28 10:49:19;;;;;;;;;;;4.50;91.20;;;;;;5071650;28;19932;-69
2021/01/28 10:51:47;;;;;;;;;;;4.50;91.10;;;;;;5066743;28;20398;-69
2021/01/28 10:54:15;;;;;;;;;;;4.50;91.00;;;;;;5071603;28;19928;-69
2021/01/28 10:56:44;;;;;;;;;;;4.50;91.20;;;;;;5082107;28;19960;-69
2021/01/28 10:59:10;;;;;;;;;;;4.60;91.00;;;;;;5091066;28;19981;-69
2021/01/28 11:01:39;;;;;;;;;;;4.60;90.60;;;;;;5062588;28;19924;-69
2021/01/28 11:04:06;;;;;;;;;;;4.60;90.80;;;;;;5051535;28;19929;-69
2021/01/28 11:06:32;;;;;;;;;;;4.60;91.10;;;;;;5080427;28;19960;-69
2021/01/28 11:08:58;;;;;;;;;;;4.50;90.90;;;;;;5051713;28;19972;-69
2021/01/28 11:11:24;;;;;;;;;;;4.50;90.80;;;;;;5056846;28;19929;-69
2021/01/28 11:13:55;;;;;;;;;;;4.60;90.80;;;;;;5070646;28;19989;-69
2021/01/28 11:16:24;;;;;;;;;;;4.70;90.80;;;;;;5061816;28;19929;-69
2021/01/28 11:18:51;;;;;;;;;;;4.70;90.60;;;;;;5068256;28;20006;-70
2021/01/28 11:21:18;;;;;;;;;;;4.70;90.70;;;;;;5069347;28;20025;-70
2021/01/28 11:23:45;;;;;;;;;;;4.70;90.60;;;;;;5065940;28;19992;-69
2021/01/28 11:26:11;;;;;;;;;;;4.80;90.60;;;;;;5068985;28;19938;-69
2021/01/28 11:28:43;;;;;;;;;;;4.80;90.50;;;;;;5066003;28;19924;-69
2021/01/28 11:31:11;;;;;;;;;;;4.90;90.60;;;;;;5069279;28;20186;-69
2021/01/28 11:33:38;;;;;;;;;;;5.00;90.70;;;;;;5067000;28;19929;-69
2021/01/28 11:36:06;;;;;;;;;;;5.00;90.00;;;;;;5073691;28;19983;-69
2021/01/28 11:38:33;;;;;;;;;;;5.00;90.20;;;;;;5070708;28;19972;-70
2021/01/28 11:41:00;;;;;;;;;;;5.00;90.30;;;;;;5073304;28;19982;-69
2021/01/28 11:43:26;;;;;;;;;;;5.10;89.20;;;;;;5069137;28;19924;-69
2021/01/28 11:45:52;;;;;;;;;;;5.10;89.60;;;;;;5072940;28;19971;-69
2021/01/28 11:48:19;;;;;;;;;;;5.10;89.70;;;;;;5071292;28;19968;-69
2021/01/28 11:50:48;;;;;;;;;;;5.10;90.00;;;;;;5072678;28;19924;-69
2021/01/28 11:53:14;;;;;;;;;;;5.10;90.10;;;;;;5071113;28;19928;-70
2021/01/28 11:55:40;;;;;;;;;;;5.20;90.00;;;;;;5066042;28;19928;-69
2021/01/28 11:58:09;;;;;;;;;;;5.30;89.60;;;;;;5093951;28;19927;-69
2021/01/28 12:00:38;;;;;;;;;;;5.30;89.80;;;;;;5072473;28;19952;-69
2021/01/28 12:03:06;;;;;;;;;;;5.20;90.00;;;;;;5072915;28;19928;-69
2021/01/28 12:05:33;;;;;;;;;;;5.20;89.80;;;;;;5070080;28;19936;-69
2021/01/28 12:07:59;;;;;;;;;;;5.20;89.90;;;;;;5072519;28;19992;-69
2021/01/28 12:10:27;;;;;;;;;;;5.20;90.10;;;;;;5070410;28;19928;-69
2021/01/28 12:12:54;;;;;;;;;;;5.10;90.10;;;;;;5073448;28;20755;-69
2021/01/28 12:15:21;;;;;;;;;;;5.10;89.80;;;;;;5070099;28;20345;-69
2021/01/28 12:17:49;;;;;;;;;;;5.00;89.80;;;;;;5071641;28;20078;-69
2021/01/28 12:20:17;;;;;;;;;;;4.90;90.40;;;;;;5059560;28;19959;-69
2021/01/28 12:22:43;;;;;;;;;;;5.00;90.30;;;;;;5073571;28;19928;-69
2021/01/28 12:25:10;;;;;;;;;;;5.00;90.20;;;;;;5069294;28;19928;-69
2021/01/28 12:27:36;;;;;;;;;;;5.00;90.20;;;;;;5073683;28;19928;-69
2021/01/28 12:30:04;;;;;;;;;;;4.90;90.50;;;;;;5073174;28;19983;-69
2021/01/28 12:32:31;;;;;;;;;;;4.80;90.70;;;;;;5065241;28;19960;-69
2021/01/28 12:34:59;;;;;;;;;;;4.90;90.60;;;;;;5068683;28;20013;-69
2021/01/28 12:37:27;;;;;;;;;;;5.00;90.20;;;;;;5068827;28;20305;-69
2021/01/28 12:39:54;;;;;;;;;;;4.90;90.20;;;;;;5073173;28;20438;-69
2021/01/28 12:42:27;;;;;;;;;;;4.90;90.20;;;;;;5085039;28;20391;-69
2021/01/28 12:44:54;;;;;;;;;;;4.90;90.40;;;;;;5072599;28;19955;-69
2021/01/28 12:47:24;;;;;;;;;;;4.90;90.70;;;;;;5067512;28;19925;-69
2021/01/28 12:49:53;;;;;;;;;;;4.90;90.80;;;;;;5073403;28;20443;-68
2021/01/28 12:52:23;;;;;;;;;;;4.80;91.00;;;;;;5068469;28;19929;-69
2021/01/28 12:54:51;;;;;;;;;;;4.70;91.20;;;;;;5072343;28;19925;-69
2021/01/28 12:57:20;;;;;;;;;;;4.70;91.70;;;;;;5068038;28;19924;-68
2021/01/28 12:59:49;;;;;;;;;;;4.60;91.70;;;;;;5071502;28;19989;-69
2021/01/28 13:02:16;;;;;;;;;;;4.60;91.90;;;;;;5068746;28;19925;-69
2021/01/28 13:04:43;;;;;;;;;;;4.60;92.00;;;;;;5071286;28;20340;-69
2021/01/28 13:07:10;;;;;;;;;;;4.60;92.20;;;;;;5072153;28;19933;-69
2021/01/28 13:09:40;;;;;;;;;;;4.60;92.10;;;;;;5068643;28;20023;-69
2021/01/28 13:12:07;;;;;;;;;;;4.50;92.10;;;;;;5072046;28;20412;-69
2021/01/28 13:14:35;;;;;;;;;;;4.60;92.20;;;;;;5051118;28;19928;-69
2021/01/28 13:17:02;;;;;;;;;;;4.60;92.10;;;;;;5071627;28;19963;-69
2021/01/28 13:19:29;;;;;;;;;;;4.60;92.00;;;;;;5067127;28;20023;-69
2021/01/28 13:21:56;;;;;;;;;;;4.50;92.20;;;;;;5070956;28;20746;-69
2021/01/28 13:24:27;;;;;;;;;;;4.50;92.60;;;;;;5068732;28;19928;-69
2021/01/28 13:26:55;;;;;;;;;;;4.50;92.70;;;;;;5070617;28;20257;-69
2021/01/28 13:29:23;;;;;;;;;;;4.40;93.10;;;;;;5068119;28;19967;-69
2021/01/28 13:31:57;;;;;;;;;;;4.30;93.00;;;;;;5072237;28;20426;-69
2021/01/28 13:34:24;;;;;;;;;;;4.30;93.30;;;;;;5068449;28;20011;-69
2021/01/28 13:36:53;;;;;;;;;;;4.20;93.60;;;;;;5070499;28;20301;-69
2021/01/28 13:39:19;;;;;;;;;;;4.20;93.70;;;;;;5067507;28;19974;-70
2021/01/28 13:41:45;;;;;;;;;;;4.20;93.80;;;;;;5071961;28;19981;-69
2021/01/28 13:44:14;;;;;;;;;;;4.20;93.70;;;;;;5070044;28;20300;-69
2021/01/28 13:46:40;;;;;;;;;;;4.20;94.00;;;;;;5072247;28;19974;-69
2021/01/28 13:49:06;;;;;;;;;;;4.20;94.20;;;;;;5071647;28;19932;-69
2021/01/28 13:51:33;;;;;;;;;;;4.20;94.20;;;;;;5068358;28;19928;-69
2021/01/28 13:53:59;;;;;;;;;;;4.20;93.90;;;;;;5070224;28;19978;-69
2021/01/28 13:56:26;;;;;;;;;;;4.10;94.10;;;;;;5067189;28;19928;-69
2021/01/28 13:58:53;;;;;;;;;;;4.20;94.20;;;;;;5070820;28;19928;-69
2021/01/28 14:01:19;;;;;;;;;;;4.20;94.40;;;;;;5066231;28;20019;-69
2021/01/28 14:03:46;;;;;;;;;;;4.20;94.30;;;;;;5069857;28;19932;-70
2021/01/28 14:06:12;;;;;;;;;;;4.20;94.50;;;;;;5067305;28;20045;-70
2021/01/28 14:08:38;;;;;;;;;;;4.20;94.40;;;;;;5070580;28;19952;-70
2021/01/28 14:11:05;;;;;;;;;;;4.10;94.60;;;;;;5066630;28;19932;-69
2021/01/28 14:13:31;;;;;;;;;;;4.00;94.50;;;;;;5070566;28;19925;-70
2021/01/28 14:15:57;;;;;;;;;;;4.00;94.70;;;;;;5069255;28;19932;-69
2021/01/28 14:18:23;;;;;;;;;;;4.00;94.70;;;;;;5053425;28;19924;-69
2021/01/28 14:20:50;;;;;;;;;;;4.00;94.70;;;;;;5058329;28;19925;-69
2021/01/28 14:23:18;;;;;;;;;;;4.00;94.60;;;;;;5064599;28;20345;-69
2021/01/28 14:25:45;;;;;;;;;;;4.00;94.90;;;;;;5069786;28;20025;-69
2021/01/28 14:28:14;;;;;;;;;;;4.10;94.60;;;;;;5066938;28;20015;-69
2021/01/28 14:30:40;;;;;;;;;;;4.00;94.60;;;;;;5071062;28;20135;-69
2021/01/28 14:33:09;;;;;;;;;;;4.10;94.70;;;;;;5076358;28;20023;-69
2021/01/28 14:35:36;;;;;;;;;;;4.00;94.60;;;;;;5070055;28;20018;-69
2021/01/28 14:38:02;;;;;;;;;;;4.00;94.90;;;;;;5057797;28;19967;-69
2021/01/28 14:40:28;;;;;;;;;;;3.90;95.20;;;;;;5070905;28;19933;-69
2021/01/28 14:42:54;;;;;;;;;;;3.90;95.20;;;;;;5067485;28;20357;-69